createdAt,value
2019-05-06T00:01:14.986Z,100857.45
2019-05-06T00:03:44.084Z,100856.40
2019-05-06T00:06:14.543Z,100852.02
2019-05-06T00:08:44.041Z,100851.16
2019-05-06T00:11:14.198Z,100850.89
2019-05-06T00:13:44.533Z,100851.83
2019-05-06T00:16:14.389Z,100851.67
2019-05-06T00:18:44.859Z,100855.95
2019-05-06T00:21:14.773Z,100856.66
2019-05-06T00:23:51.613Z,100861.64
2019-05-06T00:26:44.721Z,100856.02
2019-05-06T00:29:16.121Z,100854.75
2019-05-06T00:31:45.228Z,100852.39
2019-05-06T00:34:14.573Z,100858.05
2019-05-06T00:36:43.940Z,100858.34
2019-05-06T00:39:33.547Z,100866.63
2019-05-06T00:42:34.682Z,100864.41
2019-05-06T00:45:04.546Z,100862.88
2019-05-06T00:47:34.109Z,100863.17
2019-05-06T00:50:05.791Z,100860.86
2019-05-06T00:52:35.407Z,100865.58
2019-05-06T00:55:04.483Z,100869.44
2019-05-06T00:57:45.780Z,100872.62
2019-05-06T01:00:20.005Z,100873.94
2019-05-06T01:02:49.064Z,100872.14
2019-05-06T01:05:18.492Z,100872.66
2019-05-06T01:07:47.545Z,100872.40
2019-05-06T01:10:16.735Z,100867.83
2019-05-06T01:13:00.590Z,100869.59
2019-05-06T01:15:30.293Z,100872.36
2019-05-06T01:17:59.993Z,100880.71
2019-05-06T01:20:30.068Z,100876.25
2019-05-06T01:22:59.215Z,100876.25
2019-05-06T01:25:28.293Z,100872.73
2019-05-06T01:27:57.470Z,100874.06
2019-05-06T01:30:26.577Z,100882.61
2019-05-06T01:32:56.537Z,100879.46
2019-05-06T01:35:25.882Z,100879.09
2019-05-06T01:38:14.578Z,100890.84
2019-05-06T01:41:01.255Z,100885.77
2019-05-06T01:43:34.682Z,100890.02
2019-05-06T01:46:04.822Z,100882.27
2019-05-06T01:48:49.214Z,100891.08
2019-05-06T01:51:19.897Z,100892.94
2019-05-06T01:53:49.538Z,100894.30
2019-05-06T01:56:24.182Z,100899.53
2019-05-06T01:58:53.745Z,100902.02
2019-05-06T02:01:24.878Z,100901.50
2019-05-06T02:03:53.915Z,100895.89
2019-05-06T02:06:29.580Z,100900.98
2019-05-06T02:08:58.749Z,100906.02
2019-05-06T02:11:27.855Z,100902.63
2019-05-06T02:13:56.959Z,100900.25
2019-05-06T02:16:26.082Z,100902.00
2019-05-06T02:18:55.142Z,100902.00
2019-05-06T02:21:43.822Z,100900.51
2019-05-06T02:24:18.630Z,100902.39
2019-05-06T02:26:47.745Z,100902.36
2019-05-06T02:29:18.619Z,100906.97
2019-05-06T02:32:17.122Z,100900.70
2019-05-06T02:35:05.212Z,100903.17
2019-05-06T02:37:39.208Z,100896.14
2019-05-06T02:40:18.231Z,100902.42
2019-05-06T02:42:47.331Z,100907.42
2019-05-06T02:45:16.446Z,100907.40
2019-05-06T02:48:04.437Z,100907.22
2019-05-06T02:50:53.696Z,100900.87
2019-05-06T02:53:24.638Z,100905.80
2019-05-06T02:55:56.289Z,100911.37
2019-05-06T02:58:25.352Z,100907.78
2019-05-06T03:00:54.594Z,100906.33
2019-05-06T03:03:24.350Z,100905.18
2019-05-06T03:05:54.070Z,100914.59
2019-05-06T03:08:23.866Z,100905.95
2019-05-06T03:10:53.532Z,100906.84
2019-05-06T03:13:23.874Z,100902.63
2019-05-06T03:15:54.098Z,100897.56
2019-05-06T03:18:23.852Z,100898.00
2019-05-06T03:21:13.624Z,100903.24
2019-05-06T03:23:44.861Z,100909.59
2019-05-06T03:26:14.199Z,100911.37
2019-05-06T03:28:44.221Z,100913.41
2019-05-06T03:31:16.280Z,100910.73
2019-05-06T03:33:59.145Z,100912.91
2019-05-06T03:36:25.085Z,100922.06
2019-05-06T03:38:46.786Z,100916.06
2019-05-06T03:41:16.223Z,100910.88
2019-05-06T03:43:45.233Z,100906.74
2019-05-06T03:46:39.063Z,100914.92
2019-05-06T03:49:08.503Z,100923.02
2019-05-06T03:51:37.558Z,100922.20
2019-05-06T03:54:06.997Z,100922.72
2019-05-06T03:56:36.808Z,100924.30
2019-05-06T03:59:06.212Z,100925.92
2019-05-06T04:01:35.286Z,100926.71
2019-05-06T04:04:07.464Z,100926.09
2019-05-06T04:06:36.871Z,100936.59
2019-05-06T04:09:08.227Z,100941.75
2019-05-06T04:11:37.531Z,100940.05
2019-05-06T04:14:08.359Z,100939.13
2019-05-06T04:16:47.290Z,100941.37
2019-05-06T04:19:23.810Z,100944.69
2019-05-06T04:22:03.474Z,100951.23
2019-05-06T04:24:53.913Z,100952.70
2019-05-06T04:27:45.610Z,100951.65
2019-05-06T04:30:14.954Z,100956.64
2019-05-06T04:32:44.029Z,100958.52
2019-05-06T04:35:13.864Z,100965.84
2019-05-06T04:37:43.983Z,100963.08
2019-05-06T04:40:13.273Z,100963.97
2019-05-06T04:42:44.498Z,100968.61
2019-05-06T04:45:17.116Z,100967.89
2019-05-06T04:47:44.049Z,100967.98
2019-05-06T04:50:13.551Z,100971.16
2019-05-06T04:52:43.518Z,100972.17
2019-05-06T04:55:14.092Z,100975.08
2019-05-06T05:04:43.261Z,100982.86
2019-05-06T05:07:12.799Z,100989.27
2019-05-06T05:09:53.511Z,100981.77
2019-05-06T05:12:33.639Z,100982.41
2019-05-06T05:15:11.894Z,100987.59
2019-05-06T05:18:09.535Z,100997.99
2019-05-06T05:20:46.301Z,100993.20
2019-05-06T05:23:16.131Z,101001.86
2019-05-06T05:25:47.139Z,100998.87
2019-05-06T05:28:19.028Z,100999.95
2019-05-06T05:30:48.228Z,101002.13
2019-05-06T05:33:18.532Z,101009.97
2019-05-06T05:35:50.003Z,101010.98
2019-05-06T05:38:22.632Z,101015.11
2019-05-06T05:40:52.352Z,101018.94
2019-05-06T05:43:52.567Z,101021.43
2019-05-06T05:46:21.870Z,101024.91
2019-05-06T05:49:02.942Z,101028.00
2019-05-06T05:51:33.237Z,101029.77
2019-05-06T05:54:06.129Z,101035.87
2019-05-06T05:56:38.192Z,101027.16
2019-05-06T05:59:07.345Z,101033.27
2019-05-06T06:01:36.722Z,101029.63
2019-05-06T06:04:08.544Z,101037.60
2019-05-06T06:06:37.639Z,101046.44
2019-05-06T06:09:07.261Z,101041.58
2019-05-06T06:11:46.724Z,101038.27
2019-05-06T06:14:55.270Z,101034.55
2019-05-06T06:17:40.112Z,101036.66
2019-05-06T06:20:26.666Z,101034.69
2019-05-06T06:22:58.207Z,101039.92
2019-05-06T06:25:33.254Z,101034.36
2019-05-06T06:28:03.486Z,101034.53
2019-05-06T06:30:46.230Z,101035.48
2019-05-06T06:33:15.344Z,101038.62
2019-05-06T06:36:03.828Z,101041.77
2019-05-06T06:39:07.077Z,101034.55
2019-05-06T06:41:36.247Z,101038.69
2019-05-06T06:44:13.264Z,101036.38
2019-05-06T06:46:42.906Z,101033.01
2019-05-06T06:49:12.768Z,101034.70
2019-05-06T06:51:43.224Z,101037.57
2019-05-06T06:54:12.479Z,101036.03
2019-05-06T06:57:05.563Z,101032.89
2019-05-06T06:59:33.508Z,101030.45
2019-05-06T07:02:12.975Z,101029.72
2019-05-06T07:04:52.910Z,101029.72
2019-05-06T07:07:23.727Z,101029.83
2019-05-06T07:09:52.831Z,101033.91
2019-05-06T07:12:24.789Z,101031.33
2019-05-06T07:15:02.270Z,101024.84
2019-05-06T07:17:32.822Z,101030.62
2019-05-06T07:20:13.098Z,101032.02
2019-05-06T07:22:42.353Z,101028.94
2019-05-06T07:25:12.835Z,101030.88
2019-05-06T07:27:43.468Z,101035.17
2019-05-06T07:30:12.640Z,101028.63
2019-05-06T07:32:42.383Z,101029.36
2019-05-06T07:35:12.906Z,101032.59
2019-05-06T07:37:42.485Z,101037.20
2019-05-06T07:40:12.489Z,101037.11
2019-05-06T07:42:46.775Z,101032.36
2019-05-06T07:45:43.584Z,101036.28
2019-05-06T07:48:18.825Z,101033.75
2019-05-06T07:50:49.273Z,101034.28
2019-05-06T07:53:22.368Z,101029.73
2019-05-06T07:55:53.128Z,101033.70
2019-05-06T07:58:22.687Z,101035.64
2019-05-06T08:00:52.464Z,101036.14
2019-05-06T08:03:23.535Z,101031.70
2019-05-06T08:05:58.975Z,101032.93
2019-05-06T08:08:28.856Z,101032.35
2019-05-06T08:10:57.951Z,101041.69
2019-05-06T08:13:28.837Z,101036.50
2019-05-06T08:16:04.368Z,101041.92
2019-05-06T08:18:35.812Z,101040.28
2019-05-06T08:21:07.570Z,101035.17
2019-05-06T08:23:55.638Z,101039.63
2019-05-06T08:26:28.097Z,101037.27
2019-05-06T08:29:02.655Z,101038.33
2019-05-06T08:31:33.306Z,101033.34
2019-05-06T08:34:03.653Z,101039.77
2019-05-06T08:36:56.895Z,101043.72
2019-05-06T08:39:27.588Z,101044.66
2019-05-06T08:41:57.915Z,101046.29
2019-05-06T08:44:29.325Z,101041.23
2019-05-06T08:47:02.899Z,101045.56
2019-05-06T08:49:52.763Z,101035.50
2019-05-06T08:52:24.492Z,101027.25
2019-05-06T08:54:56.020Z,101027.34
2019-05-06T08:57:27.357Z,101027.71
2019-05-06T08:59:56.770Z,101029.81
2019-05-06T09:02:25.900Z,101030.59
2019-05-06T09:04:57.890Z,101028.70
2019-05-06T09:07:27.583Z,101032.77
2019-05-06T09:09:56.841Z,101029.31
2019-05-06T09:12:28.363Z,101027.55
2019-05-06T09:15:03.276Z,101025.64
2019-05-06T09:17:33.632Z,101020.03
2019-05-06T09:20:04.892Z,101025.42
2019-05-06T09:22:34.378Z,101020.52
2019-05-06T09:25:05.234Z,101021.52
2019-05-06T09:28:08.093Z,101018.61
2019-05-06T09:31:01.716Z,101011.22
2019-05-06T09:33:37.414Z,101016.27
2019-05-06T09:36:06.870Z,101015.19
2019-05-06T09:38:36.199Z,101010.13
2019-05-06T09:41:08.989Z,101007.19
2019-05-06T09:43:43.323Z,101003.56
2019-05-06T09:46:16.122Z,101009.66
2019-05-06T09:49:06.525Z,101013.52
2019-05-06T09:51:35.813Z,101019.33
2019-05-06T09:54:38.406Z,101010.65
2019-05-06T09:57:14.120Z,101006.33
2019-05-06T09:59:45.705Z,101003.05
2019-05-06T10:02:16.556Z,101004.89
2019-05-06T10:04:49.177Z,101004.30
2019-05-06T10:07:18.820Z,101002.71
2019-05-06T10:09:47.921Z,101003.57
2019-05-06T10:12:19.726Z,101001.58
2019-05-06T10:14:53.214Z,100997.59
2019-05-06T10:17:23.743Z,101004.10
2019-05-06T10:19:52.871Z,101000.17
2019-05-06T10:22:24.721Z,100998.12
2019-05-06T10:24:56.106Z,100996.06
2019-05-06T10:27:26.140Z,100999.59
2019-05-06T10:30:09.395Z,101000.91
2019-05-06T10:32:52.825Z,101000.60
2019-05-06T10:35:26.047Z,101002.73
2019-05-06T10:38:24.216Z,100985.45
2019-05-06T10:41:03.882Z,100995.73
2019-05-06T10:44:03.031Z,100990.22
2019-05-06T10:46:30.382Z,100988.69
2019-05-06T10:49:02.585Z,100996.30
2019-05-06T10:51:53.111Z,100988.12
2019-05-06T10:54:22.978Z,100996.28
2019-05-06T10:57:13.226Z,100992.14
2019-05-06T10:59:45.500Z,100992.69
2019-05-06T11:02:32.328Z,100986.44
2019-05-06T11:05:04.563Z,100993.70
2019-05-06T11:07:35.375Z,100988.88
2019-05-06T11:10:07.101Z,100988.30
2019-05-06T11:12:36.508Z,100987.41
2019-05-06T11:15:06.479Z,100991.24
2019-05-06T11:17:35.669Z,100989.16
2019-05-06T11:20:10.248Z,100984.58
2019-05-06T11:22:37.862Z,100977.72
2019-05-06T11:25:08.262Z,100981.67
2019-05-06T11:27:41.239Z,100984.61
2019-05-06T11:30:14.733Z,100979.65
2019-05-06T11:32:54.819Z,100985.65
2019-05-06T11:35:52.546Z,100988.01
2019-05-06T11:38:22.796Z,100984.94
2019-05-06T11:40:52.991Z,100989.66
2019-05-06T11:43:24.069Z,100975.48
2019-05-06T11:45:53.203Z,100981.95
2019-05-06T11:48:22.763Z,100981.14
2019-05-06T11:50:54.159Z,100974.19
2019-05-06T11:53:24.146Z,100971.03
2019-05-06T11:55:55.010Z,100965.55
2019-05-06T11:58:46.231Z,100966.52
2019-05-06T12:01:28.924Z,100967.62
2019-05-06T12:04:03.162Z,100967.80
2019-05-06T12:07:11.226Z,100968.78
2019-05-06T12:09:41.900Z,100965.69
2019-05-06T12:12:13.685Z,100966.75
2019-05-06T12:14:43.115Z,100956.65
2019-05-06T12:17:15.085Z,100967.98
2019-05-06T12:19:47.208Z,100960.42
2019-05-06T12:22:16.328Z,100964.67
2019-05-06T12:24:45.755Z,100954.48
2019-05-06T12:27:33.777Z,100959.29
2019-05-06T12:30:05.230Z,100955.21
2019-05-06T12:32:40.250Z,100964.30
2019-05-06T12:35:09.433Z,100963.19
2019-05-06T12:37:43.849Z,100961.84
2019-05-06T12:40:12.546Z,100957.59
2019-05-06T12:42:49.060Z,100958.73
2019-05-06T12:45:32.837Z,100965.73
2019-05-06T12:48:16.007Z,100967.00
2019-05-06T12:50:46.079Z,100960.68
2019-05-06T12:53:15.320Z,100960.25
2019-05-06T12:55:48.077Z,100947.30
2019-05-06T12:58:23.245Z,100950.41
2019-05-06T13:00:54.587Z,100945.72
2019-05-06T13:03:27.157Z,100940.58
2019-05-06T13:05:59.307Z,100935.92
2019-05-06T13:08:49.620Z,100933.23
2019-05-06T13:10:59.342Z,100934.81
2019-05-06T13:13:29.575Z,100927.44
2019-05-06T13:15:59.549Z,100928.97
2019-05-06T13:18:29.342Z,100929.42
2019-05-06T13:21:04.398Z,100922.63
2019-05-06T13:23:38.691Z,100921.52
2019-05-06T13:26:12.883Z,100919.26
2019-05-06T13:28:45.701Z,100914.30
2019-05-06T13:31:20.829Z,100903.22
2019-05-06T13:33:57.703Z,100901.82
2019-05-06T13:36:33.135Z,100903.87
2019-05-06T13:39:13.689Z,100893.72
2019-05-06T13:41:39.364Z,100889.57
2019-05-06T13:44:16.206Z,100886.82
2019-05-06T13:46:53.528Z,100886.91
2019-05-06T13:49:32.602Z,100894.33
2019-05-06T13:52:05.037Z,100899.05
2019-05-06T13:54:34.708Z,100903.42
2019-05-06T13:57:05.126Z,100898.81
2019-05-06T13:59:35.719Z,100897.83
2019-05-06T14:02:16.623Z,100895.91
2019-05-06T14:04:46.132Z,100894.59
2019-05-06T14:07:15.468Z,100892.67
2019-05-06T14:09:44.616Z,100900.45
2019-05-06T14:12:13.829Z,100906.79
2019-05-06T14:14:46.514Z,100900.95
2019-05-06T14:17:18.453Z,100899.20
2019-05-06T14:19:50.431Z,100897.30
2019-05-06T14:22:19.863Z,100891.00
2019-05-06T14:24:56.166Z,100898.56
2019-05-06T14:27:25.521Z,100891.16
2019-05-06T14:29:59.409Z,100885.90
2019-05-06T14:32:29.013Z,100896.53
2019-05-06T14:35:01.121Z,100894.77
2019-05-06T14:37:32.794Z,100901.37
2019-05-06T14:40:03.279Z,100899.05
2019-05-06T14:42:33.022Z,100900.84
2019-05-06T14:45:04.463Z,100898.66
2019-05-06T14:47:37.410Z,100903.50
2019-05-06T14:50:07.220Z,100895.19
2019-05-06T14:52:36.356Z,100897.83
2019-05-06T14:55:23.118Z,100894.73
2019-05-06T14:57:56.052Z,100895.70
2019-05-06T15:00:27.950Z,100895.63
2019-05-06T15:02:57.469Z,100898.16
2019-05-06T15:05:26.992Z,100893.36
2019-05-06T15:07:57.245Z,100900.73
2019-05-06T15:10:28.159Z,100904.25
2019-05-06T15:12:57.949Z,100904.94
2019-05-06T15:15:27.276Z,100899.36
2019-05-06T15:17:57.700Z,100901.55
2019-05-06T15:20:27.469Z,100906.36
2019-05-06T15:22:58.006Z,100911.40
2019-05-06T15:25:29.242Z,100909.04
2019-05-06T15:27:58.340Z,100909.11
2019-05-06T15:30:38.030Z,100914.30
2019-05-06T15:33:09.434Z,100905.67
2019-05-06T15:35:56.107Z,100904.64
2019-05-06T15:38:28.060Z,100906.82
2019-05-06T15:40:57.522Z,100907.74
2019-05-06T15:43:27.152Z,100912.69
2019-05-06T15:45:56.501Z,100906.67
2019-05-06T15:48:26.060Z,100913.94
2019-05-06T15:50:57.117Z,100911.03
2019-05-06T15:53:28.754Z,100914.49
2019-05-06T15:55:58.195Z,100909.20
2019-05-06T15:58:27.364Z,100909.82
2019-05-06T16:00:56.696Z,100915.97
2019-05-06T16:03:26.169Z,100912.00
2019-05-06T16:05:58.379Z,100911.21
2019-05-06T16:08:32.103Z,100906.55
2019-05-06T16:11:04.457Z,100909.70
2019-05-06T16:13:36.426Z,100906.03
2019-05-06T16:16:12.477Z,100907.13
2019-05-06T16:18:42.407Z,100910.83
2019-05-06T16:21:11.588Z,100903.72
2019-05-06T16:23:48.380Z,100909.33
2019-05-06T16:26:17.785Z,100908.55
2019-05-06T16:28:48.548Z,100908.52
2019-05-06T16:31:18.154Z,100907.87
2019-05-06T16:33:47.937Z,100906.52
2019-05-06T16:36:18.782Z,100905.53
2019-05-06T16:38:49.252Z,100908.45
2019-05-06T16:41:18.393Z,100905.67
2019-05-06T16:43:52.182Z,100907.87
2019-05-06T16:46:23.115Z,100904.81
2019-05-06T16:48:55.178Z,100906.64
2019-05-06T16:51:24.615Z,100900.97
2019-05-06T16:53:53.986Z,100905.64
2019-05-06T16:56:41.827Z,100902.28
2019-05-06T16:59:12.779Z,100901.48
2019-05-06T17:01:45.218Z,100899.16
2019-05-06T17:04:34.970Z,100901.92
2019-05-06T17:07:11.775Z,100900.27
2019-05-06T17:09:43.000Z,100901.67
2019-05-06T17:12:12.934Z,100898.34
2019-05-06T17:14:42.915Z,100901.98
2019-05-06T17:17:15.202Z,100903.27
2019-05-06T17:19:45.928Z,100904.57
2019-05-06T17:22:15.284Z,100910.36
2019-05-06T17:24:48.467Z,100908.65
2019-05-06T17:27:23.431Z,100916.19
2019-05-06T17:30:04.484Z,100909.30
2019-05-06T17:32:41.945Z,100914.19
2019-05-06T17:35:13.989Z,100912.24
2019-05-06T17:38:02.239Z,100910.36
2019-05-06T17:40:32.355Z,100911.68
2019-05-06T17:43:02.665Z,100915.02
2019-05-06T17:45:59.371Z,100913.95
2019-05-06T17:48:27.978Z,100920.38
2019-05-06T17:51:17.475Z,100922.92
2019-05-06T17:53:53.331Z,100917.17
2019-05-06T17:56:22.704Z,100920.47
2019-05-06T17:58:53.255Z,100923.30
2019-05-06T18:01:33.387Z,100919.81
2019-05-06T18:04:05.926Z,100924.34
2019-05-06T18:06:35.714Z,100925.28
2019-05-06T18:09:09.080Z,100923.44
2019-05-06T18:11:38.685Z,100925.01
2019-05-06T18:14:08.187Z,100925.97
2019-05-06T18:16:37.503Z,100924.38
2019-05-06T18:19:08.422Z,100924.56
2019-05-06T18:21:39.767Z,100924.56
2019-05-06T18:24:09.878Z,100926.18
2019-05-06T18:26:41.968Z,100925.28
2019-05-06T18:29:22.741Z,100924.45
2019-05-06T18:31:54.954Z,100927.09
2019-05-06T18:34:24.342Z,100926.11
2019-05-06T18:36:54.184Z,100925.74
2019-05-06T18:39:25.740Z,100929.91
2019-05-06T18:41:57.508Z,100933.91
2019-05-06T18:44:26.999Z,100936.65
2019-05-06T18:46:56.379Z,100933.23
2019-05-06T18:49:27.153Z,100942.73
2019-05-06T18:51:56.621Z,100940.39
2019-05-06T18:54:29.009Z,100944.19
2019-05-06T18:57:04.791Z,100941.64
2019-05-06T18:59:37.110Z,100947.43
2019-05-06T19:02:12.948Z,100947.59
2019-05-06T19:04:53.335Z,100950.31
2019-05-06T19:07:24.644Z,100952.77
2019-05-06T19:09:58.935Z,100952.91
2019-05-06T19:12:41.507Z,100958.30
2019-05-06T19:15:12.709Z,100956.05
2019-05-06T19:17:44.264Z,100954.44
2019-05-06T19:20:16.572Z,100962.11
2019-05-06T19:22:46.288Z,100962.99
2019-05-06T19:25:19.061Z,100966.15
2019-05-06T19:27:53.099Z,100967.53
2019-05-06T19:30:38.943Z,100970.20
2019-05-06T19:33:12.346Z,100970.88
2019-05-06T19:35:56.562Z,100975.50
2019-05-06T19:38:28.992Z,100967.89
2019-05-06T19:41:02.474Z,100966.99
2019-05-06T19:43:35.801Z,100968.69
2019-05-06T19:46:19.267Z,100977.59
2019-05-06T19:48:52.448Z,100978.81
2019-05-06T19:51:28.682Z,100971.56
2019-05-06T19:54:12.497Z,100977.95
2019-05-06T19:56:42.378Z,100971.35
2019-05-06T19:59:12.970Z,100974.16
2019-05-06T20:01:43.016Z,100971.23
2019-05-06T20:04:13.192Z,100974.43
2019-05-06T20:07:09.326Z,100975.84
2019-05-06T20:10:12.420Z,100975.00
2019-05-06T20:12:59.442Z,100978.77
2019-05-06T20:15:34.671Z,100966.09
2019-05-06T20:18:10.221Z,100972.69
2019-05-06T20:20:42.547Z,100973.34
2019-05-06T20:23:12.574Z,100975.12
2019-05-06T20:25:42.804Z,100978.50
2019-05-06T20:28:13.785Z,100974.44
2019-05-06T20:30:44.155Z,100977.26
2019-05-06T20:33:17.517Z,100978.88
2019-05-06T20:35:48.232Z,100976.09
2019-05-06T20:38:27.520Z,100974.27
2019-05-06T20:41:08.304Z,100970.81
2019-05-06T20:44:25.103Z,100971.42
2019-05-06T20:46:55.424Z,100968.20
2019-05-06T20:49:27.097Z,100968.48
2019-05-06T20:51:56.992Z,100964.58
2019-05-06T20:54:32.477Z,100973.69
2019-05-06T20:57:02.684Z,100972.25
2019-05-06T20:59:41.967Z,100972.27
2019-05-06T21:02:12.446Z,100969.23
2019-05-06T21:04:46.323Z,100974.50
2019-05-06T21:07:29.688Z,100968.46
2019-05-06T21:10:12.745Z,100968.23
2019-05-06T21:12:58.160Z,100971.77
2019-05-06T21:15:33.540Z,100968.48
2019-05-06T21:18:04.386Z,100968.03
2019-05-06T21:20:39.756Z,100960.88
2019-05-06T21:23:09.216Z,100964.16
2019-05-06T21:25:43.125Z,100967.27
2019-05-06T21:28:14.978Z,100964.62
2019-05-06T21:31:32.627Z,100958.87
2019-05-06T21:33:27.543Z,100961.00
2019-05-06T21:35:57.013Z,100964.81
2019-05-06T21:38:27.827Z,100972.09
2019-05-06T21:40:57.069Z,100965.37
2019-05-06T21:43:26.480Z,100967.91
2019-05-06T21:45:59.017Z,100961.64
2019-05-06T21:48:34.460Z,100967.14
2019-05-06T21:51:03.700Z,100970.41
2019-05-06T21:53:33.128Z,100967.14
2019-05-06T21:56:06.632Z,100966.05
2019-05-06T21:58:54.428Z,100962.55
2019-05-06T22:02:09.573Z,100954.29
2019-05-06T22:05:02.643Z,100960.69
2019-05-06T22:07:37.869Z,100954.09
2019-05-06T22:10:52.877Z,100956.64
2019-05-06T22:13:39.053Z,100953.00
2019-05-06T22:16:08.384Z,100948.05
2019-05-06T22:18:37.639Z,100949.21
2019-05-06T22:21:22.658Z,100946.80
2019-05-06T22:23:56.360Z,100954.53
2019-05-06T22:29:21.728Z,100950.73
2019-05-06T22:31:51.938Z,100945.30
2019-05-06T22:34:22.137Z,100953.06
2019-05-06T22:37:23.315Z,100946.12
2019-05-06T22:39:54.545Z,100953.20
2019-05-06T22:42:28.105Z,100950.62
2019-05-06T22:44:57.925Z,100948.51
2019-05-06T22:47:35.987Z,100950.50
2019-05-06T22:50:02.200Z,100947.88
2019-05-06T22:52:32.547Z,100942.14
2019-05-06T22:55:07.663Z,100955.02
2019-05-06T22:58:02.819Z,100947.02
2019-05-06T23:00:53.715Z,100946.66
2019-05-06T23:03:37.127Z,100947.05
2019-05-06T23:06:09.316Z,100942.66
2019-05-06T23:08:43.400Z,100944.22
2019-05-06T23:11:10.166Z,100950.14
2019-05-06T23:13:44.075Z,100947.59
2019-05-06T23:16:14.144Z,100941.06
2019-05-06T23:19:31.834Z,100946.19
2019-05-06T23:21:14.777Z,100945.76
2019-05-06T23:23:44.127Z,100948.38
2019-05-06T23:26:22.828Z,100945.55
2019-05-06T23:29:10.339Z,100945.84
2019-05-06T23:31:39.565Z,100941.69
2019-05-06T23:34:08.983Z,100942.55
2019-05-06T23:37:27.476Z,100944.27
2019-05-06T23:40:42.846Z,100939.07
2019-05-06T23:43:50.879Z,100936.70
2019-05-06T23:46:55.649Z,100930.30
2019-05-06T23:50:04.044Z,100935.27
2019-05-06T23:53:14.399Z,100934.79
2019-05-06T23:56:37.329Z,100933.04
2019-05-06T23:59:17.648Z,100930.12
